Time;durP1;ratioP1;P1;durP2;ratioP2;P2;SDS_P1;SDS_P2;PMS_P1;PMS_P2;Temp;Humidity;BMP_temperature;BMP_pressure;BME280_temperature;BME280_humidity;BME280_pressure;Samples;Min_cycle;Max_cycle;Signal;HPM_P1;HPM_P2
2022/01/11 00:01:18;;;;;;;12.88;12.27;;;;;;;-2.52;100.00;101488.91;4987905;28;20030;-69
2022/01/11 00:03:43;;;;;;;12.45;11.85;;;;;;;-2.56;100.00;101489.13;4987323;28;20034;-67
2022/01/11 00:08:45;;;;;;;12.85;12.15;;;;;;;-2.51;100.00;101498.38;4993777;28;20374;-67
2022/01/11 00:11:11;;;;;;;12.05;11.45;;;;;;;-2.59;100.00;101494.44;4994539;28;20392;-68
2022/01/11 00:13:39;;;;;;;14.07;13.32;;;;;;;-2.67;100.00;101502.56;4987581;28;20040;-66
2022/01/11 00:16:06;;;;;;;12.65;12.05;;;;;;;-2.74;100.00;101503.72;4982241;28;20033;-63
2022/01/11 00:18:32;;;;;;;12.57;11.98;;;;;;;-2.78;100.00;101508.22;4979510;28;20441;-67
2022/01/11 00:20:58;;;;;;;13.38;12.68;;;;;;;-2.77;100.00;101509.06;4982600;28;20085;-68
2022/01/11 00:25:53;;;;;;;13.52;12.82;;;;;;;-2.72;100.00;101514.88;4995689;28;20034;-67
2022/01/11 00:28:20;;;;;;;13.30;12.60;;;;;;;-2.79;100.00;101522.13;4980563;28;20027;-67
2022/01/11 00:30:48;;;;;;;13.38;12.68;;;;;;;-2.73;100.00;101520.16;4990344;28;20476;-69
2022/01/11 00:33:18;;;;;;;12.50;11.90;;;;;;;-2.82;100.00;101524.00;4978568;28;20151;-67
2022/01/11 00:35:57;;;;;;;13.38;12.70;;;;;;;-2.82;100.00;101522.25;4989811;28;20500;-65
2022/01/11 00:38:25;;;;;;;12.77;12.18;;;;;;;-2.78;100.00;101526.41;4976421;28;20043;-70
2022/01/11 00:40:55;;;;;;;12.82;12.23;;;;;;;-2.71;100.00;101524.41;4993106;28;20042;-67
2022/01/11 00:43:23;;;;;;;13.32;12.63;;;;;;;-2.84;100.00;101520.63;4981868;28;20074;-67
2022/01/11 00:45:50;;;;;;;13.77;13.02;;;;;;;-2.69;100.00;101529.53;4986185;28;20122;-66
2022/01/11 00:48:16;;;;;;;13.05;12.35;;;;;;;-2.67;100.00;101533.72;4980195;28;20030;-69
2022/01/11 00:50:42;;;;;;;13.05;12.35;;;;;;;-2.64;100.00;101537.97;4979911;28;20019;-66
2022/01/11 00:53:09;;;;;;;13.07;12.38;;;;;;;-2.79;100.00;101536.88;4979506;28;20404;-66
2022/01/11 00:55:34;;;;;;;12.65;12.05;;;;;;;-2.75;100.00;101537.56;4978083;28;20055;-64
2022/01/11 00:58:02;;;;;;;13.40;12.70;;;;;;;-2.72;100.00;101543.47;4977902;28;20049;-68
2022/01/11 01:00:29;;;;;;;12.38;11.77;;;;;;;-2.72;100.00;101542.63;4991153;28;20392;-65
2022/01/11 01:02:55;;;;;;;12.70;12.07;;;;;;;-2.82;100.00;101534.38;4995121;28;20033;-66
2022/01/11 01:05:21;;;;;;;13.25;12.55;;;;;;;-2.82;100.00;101544.75;4993990;28;20030;-63
2022/01/11 01:07:48;;;;;;;12.95;12.27;;;;;;;-2.89;100.00;101549.38;4978322;28;20089;-66
2022/01/11 01:10:26;;;;;;;13.25;12.57;;;;;;;-2.83;100.00;101548.28;4983603;28;20030;-66
2022/01/11 01:12:59;;;;;;;13.50;12.80;;;;;;;-2.91;100.00;101551.19;4976217;28;20681;-68
2022/01/11 01:15:27;;;;;;;14.07;13.30;;;;;;;-2.96;100.00;101550.53;4977621;28;20488;-69
2022/01/11 01:17:53;;;;;;;14.23;13.43;;;;;;;-2.85;100.00;101547.50;4993275;28;20073;-67
2022/01/11 01:20:20;;;;;;;13.23;12.52;;;;;;;-2.83;100.00;101536.13;4976567;28;20492;-63
2022/01/11 01:22:46;;;;;;;13.07;12.38;;;;;;;-2.92;100.00;101544.31;4976402;28;20027;-68
2022/01/11 01:25:12;;;;;;;13.82;13.10;;;;;;;-2.85;100.00;101544.91;4991166;28;20037;-69
2022/01/11 01:27:38;;;;;;;13.35;12.65;;;;;;;-2.79;100.00;101552.44;4981241;28;20030;-68
2022/01/11 01:30:06;;;;;;;13.60;12.90;;;;;;;-2.85;100.00;101552.69;4993431;28;20435;-68
2022/01/11 01:32:32;;;;;;;13.35;12.65;;;;;;;-2.80;100.00;101554.16;4976596;28;20111;-68
2022/01/11 01:35:02;;;;;;;13.85;13.13;;;;;;;-2.78;100.00;101561.91;4993174;28;20125;-62
2022/01/11 01:37:28;;;;;;;13.20;12.50;;;;;;;-2.86;100.00;101561.41;4986579;28;20033;-67
2022/01/11 01:39:53;;;;;;;12.82;12.23;;;;;;;-2.88;100.00;101565.78;4984832;28;20392;-69
2022/01/11 01:42:29;;;;;;;13.35;12.65;;;;;;;-3.11;100.00;101577.94;4975332;28;20027;-67
2022/01/11 01:44:54;;;;;;;13.70;13.00;;;;;;;-2.96;100.00;101568.69;4990252;28;20064;-66
2022/01/11 01:47:20;;;;;;;13.85;13.15;;;;;;;-2.91;100.00;101566.78;4987302;28;20058;-66
2022/01/11 01:49:46;;;;;;;13.48;12.77;;;;;;;-2.88;100.00;101573.56;4977201;28;20034;-66
2022/01/11 01:52:14;;;;;;;13.05;12.35;;;;;;;-2.87;100.00;101572.66;4986749;28;20042;-66
2022/01/11 01:54:40;;;;;;;13.85;13.10;;;;;;;-2.91;100.00;101565.94;4977729;28;20035;-64
2022/01/11 01:57:06;;;;;;;13.05;12.43;;;;;;;-3.04;100.00;101575.97;4974555;28;20049;-69
2022/01/11 01:59:31;;;;;;;13.52;12.82;;;;;;;-3.12;100.00;101568.47;4985953;28;20034;-67
2022/01/11 02:01:58;;;;;;;13.55;12.85;;;;;;;-3.07;100.00;101571.75;4977208;28;20062;-65
2022/01/11 02:04:23;;;;;;;14.13;13.32;;;;;;;-3.00;100.00;101574.09;4990331;28;20038;-68
2022/01/11 02:06:49;;;;;;;13.73;13.02;;;;;;;-3.04;100.00;101575.97;4991515;28;20096;-70
2022/01/11 02:09:15;;;;;;;13.35;12.65;;;;;;;-3.03;100.00;101574.19;4991895;28;20038;-66
2022/01/11 02:11:41;;;;;;;14.00;13.20;;;;;;;-3.03;100.00;101579.41;4992382;28;20365;-68
2022/01/11 02:14:07;;;;;;;13.38;12.68;;;;;;;-3.08;100.00;101577.84;4991719;28;20033;-69
2022/01/11 02:16:33;;;;;;;13.38;12.68;;;;;;;-3.12;100.00;101576.25;4993616;28;20109;-68
2022/01/11 02:18:58;;;;;;;13.75;13.05;;;;;;;-3.15;100.00;101583.34;4977235;28;20034;-65
2022/01/11 02:21:24;;;;;;;13.95;13.25;;;;;;;-3.28;100.00;101580.38;4989753;28;20031;-66
2022/01/11 02:23:50;;;;;;;13.90;13.15;;;;;;;-3.08;100.00;101584.78;4975571;28;20034;-67
2022/01/11 02:26:16;;;;;;;13.63;12.93;;;;;;;-3.02;100.00;101576.72;4991006;28;20030;-66
2022/01/11 02:28:42;;;;;;;13.38;12.68;;;;;;;-3.09;100.00;101589.09;4986104;28;20065;-70
2022/01/11 02:31:12;;;;;;;13.65;12.95;;;;;;;-3.25;100.00;101585.44;4990667;28;20038;-63
2022/01/11 02:33:44;;;;;;;13.82;13.13;;;;;;;-3.22;100.00;101582.75;4991145;28;20045;-68
2022/01/11 02:36:14;;;;;;;13.88;13.18;;;;;;;-3.24;100.00;101579.34;4989627;28;20030;-68
2022/01/11 02:38:39;;;;;;;13.65;12.95;;;;;;;-3.25;100.00;101587.19;4976246;28;20022;-67
2022/01/11 02:41:05;;;;;;;13.88;13.18;;;;;;;-3.28;100.00;101585.56;4983349;28;20550;-67
2022/01/11 02:43:31;;;;;;;13.60;12.90;;;;;;;-3.24;100.00;101578.50;4987713;28;20436;-65
2022/01/11 02:46:01;;;;;;;13.38;12.77;;;;;;;-3.24;100.00;101584.53;4976360;28;20058;-67
2022/01/11 02:48:27;;;;;;;14.25;13.45;;;;;;;-3.35;100.00;101581.53;4976678;28;20407;-67
2022/01/11 02:50:52;;;;;;;14.43;13.73;;;;;;;-3.16;100.00;101590.28;4975119;28;20051;-71
2022/01/11 02:53:18;;;;;;;14.05;13.32;;;;;;;-3.18;100.00;101589.47;4974623;28;20121;-65
2022/01/11 02:55:44;;;;;;;13.15;12.55;;;;;;;-3.17;100.00;101593.75;4988723;28;20569;-67
2022/01/11 02:58:11;;;;;;;13.13;12.50;;;;;;;-3.09;100.00;101591.69;4986851;28;20030;-67
2022/01/11 03:00:41;;;;;;;13.52;12.82;;;;;;;-3.36;100.00;101587.63;4978681;28;20400;-67
2022/01/11 03:03:11;;;;;;;14.63;13.80;;;;;;;-3.15;100.00;101599.75;4987126;28;20088;-67
2022/01/11 03:05:43;;;;;;;13.23;12.60;;;;;;;-3.07;100.00;101586.47;4976064;28;20026;-62
2022/01/11 03:08:10;;;;;;;13.43;12.73;;;;;;;-3.09;100.00;101601.25;4986454;28;20403;-65
2022/01/11 03:10:36;;;;;;;14.48;13.68;;;;;;;-3.06;100.00;101594.19;4991628;28;20447;-67
2022/01/11 03:13:04;;;;;;;13.45;12.75;;;;;;;-3.14;100.00;101596.25;4983004;28;20036;-66
2022/01/11 03:15:29;;;;;;;13.32;12.63;;;;;;;-3.10;100.00;101597.81;4990523;28;20443;-67
2022/01/11 03:17:55;;;;;;;13.38;12.68;;;;;;;-2.96;100.00;101599.84;4986159;28;20025;-66
2022/01/11 03:20:21;;;;;;;13.25;12.55;;;;;;;-2.93;100.00;101604.09;4976345;28;20029;-71
2022/01/11 03:22:46;;;;;;;13.20;12.50;;;;;;;-2.90;100.00;101614.34;4989711;28;20480;-69
2022/01/11 03:25:12;;;;;;;13.05;12.35;;;;;;;-3.14;100.00;101614.41;4985071;28;20069;-65
2022/01/11 03:27:41;;;;;;;13.50;12.80;;;;;;;-3.00;100.00;101616.47;4984004;28;20038;-62
2022/01/11 03:30:08;;;;;;;13.85;13.15;;;;;;;-2.98;100.00;101609.47;4985881;28;20037;-68
2022/01/11 03:32:33;;;;;;;14.25;13.40;;;;;;;-3.00;100.00;101616.47;4978094;28;20034;-63
2022/01/11 03:34:59;;;;;;;12.82;12.23;;;;;;;-3.03;100.00;101615.72;4987393;28;20030;-64
2022/01/11 03:37:24;;;;;;;13.88;13.18;;;;;;;-3.01;100.00;101619.09;4977134;28;20500;-69
2022/01/11 03:39:50;;;;;;;14.23;13.43;;;;;;;-2.97;100.00;101624.13;4978054;28;20034;-69
2022/01/11 03:42:16;;;;;;;13.35;12.65;;;;;;;-2.94;100.00;101623.16;4988128;28;20023;-65
2022/01/11 03:44:41;;;;;;;13.73;13.02;;;;;;;-2.88;100.00;101633.28;4987359;28;20034;-64
2022/01/11 03:47:07;;;;;;;12.70;12.10;;;;;;;-2.98;100.00;101624.19;4983937;28;20033;-68
2022/01/11 03:49:33;;;;;;;13.38;12.68;;;;;;;-2.88;100.00;101634.13;4990788;28;20107;-65
2022/01/11 03:51:59;;;;;;;12.75;12.10;;;;;;;-2.80;100.00;101633.81;4976831;28;20035;-68
2022/01/11 03:54:28;;;;;;;13.00;12.32;;;;;;;-2.92;100.00;101629.97;4986372;28;20109;-66
2022/01/11 03:56:54;;;;;;;14.15;13.35;;;;;;;-2.85;100.00;101630.59;4988598;28;20381;-64
2022/01/11 03:59:21;;;;;;;13.27;12.57;;;;;;;-2.87;100.00;101642.75;4976342;28;20425;-65
2022/01/11 04:01:47;;;;;;;13.23;12.52;;;;;;;-2.95;100.00;101642.22;4975404;28;20030;-67
2022/01/11 04:04:14;;;;;;;14.52;13.73;;;;;;;-3.16;100.00;101639.59;4987113;28;20034;-66
2022/01/11 04:06:40;;;;;;;13.55;12.85;;;;;;;-2.96;100.00;101641.38;4984578;28;20097;-64
2022/01/11 04:09:06;;;;;;;14.02;13.30;;;;;;;-2.97;100.00;101637.09;4982075;28;20037;-66
2022/01/11 04:11:32;;;;;;;14.40;13.55;;;;;;;-2.96;100.00;101640.53;4985338;28;20520;-66
2022/01/11 04:13:58;;;;;;;13.57;12.88;;;;;;;-3.01;100.00;101650.25;4981419;28;20038;-66
2022/01/11 04:16:24;;;;;;;13.57;12.88;;;;;;;-2.93;100.00;101651.66;4988975;28;20500;-68
2022/01/11 04:18:49;;;;;;;13.45;12.73;;;;;;;-2.91;100.00;101644.66;4991075;28;20030;-65
2022/01/11 04:21:15;;;;;;;14.27;13.57;;;;;;;-2.75;100.00;101652.66;4978426;28;20034;-67
2022/01/11 04:23:40;;;;;;;12.50;11.90;;;;;;;-3.12;100.00;101650.69;4986528;28;20026;-65
2022/01/11 04:26:06;;;;;;;13.25;12.55;;;;;;;-2.95;100.00;101656.06;4984624;28;20480;-67
2022/01/11 04:28:32;;;;;;;13.52;12.82;;;;;;;-2.89;100.00;101650.63;4980258;28;20042;-68
2022/01/11 04:31:00;;;;;;;13.25;12.55;;;;;;;-2.94;100.00;101656.91;4983406;28;20133;-68
2022/01/11 04:33:29;;;;;;;13.77;13.07;;;;;;;-2.90;100.00;101658.47;4981115;28;20031;-66
2022/01/11 04:35:57;;;;;;;14.18;13.38;;;;;;;-2.95;100.00;101663.00;4976638;28;20118;-68
2022/01/11 04:38:26;;;;;;;13.50;12.80;;;;;;;-3.07;100.00;101656.56;4973684;28;20035;-69
2022/01/11 04:40:52;;;;;;;13.05;12.35;;;;;;;-2.96;100.00;101653.53;4981372;28;20042;-66
2022/01/11 04:43:18;;;;;;;14.13;13.32;;;;;;;-2.92;100.00;101668.09;4979301;28;20118;-69
2022/01/11 04:45:43;;;;;;;13.25;12.65;;;;;;;-2.93;100.00;101669.00;4982523;28;20026;-68
2022/01/11 04:48:09;;;;;;;13.55;12.85;;;;;;;-3.16;100.00;101669.88;4988835;28;20554;-66
2022/01/11 04:50:35;;;;;;;13.70;13.00;;;;;;;-3.07;100.00;101685.09;4983634;28;20121;-69
2022/01/11 04:53:01;;;;;;;13.48;12.77;;;;;;;-3.02;100.00;101677.97;4990475;28;20032;-63
2022/01/11 04:55:27;;;;;;;13.52;12.82;;;;;;;-2.93;100.00;101685.41;4982560;28;20050;-69
2022/01/11 04:57:53;;;;;;;13.52;12.82;;;;;;;-3.05;100.00;101688.47;4989968;28;20196;-68
2022/01/11 05:00:21;;;;;;;14.32;13.52;;;;;;;-2.93;100.00;101692.38;4984875;28;20034;-65
2022/01/11 05:02:47;;;;;;;13.30;12.60;;;;;;;-3.01;100.00;101686.59;4984425;28;20503;-67
2022/01/11 05:05:14;;;;;;;13.60;12.90;;;;;;;-2.90;100.00;101687.03;4985857;28;20038;-62
2022/01/11 05:07:41;;;;;;;14.02;13.23;;;;;;;-2.84;100.00;101695.44;4990264;28;20081;-66
2022/01/11 05:10:07;;;;;;;13.45;12.75;;;;;;;-2.90;100.00;101697.41;4986328;28;20072;-70
2022/01/11 05:12:34;;;;;;;13.98;13.18;;;;;;;-2.87;100.00;101705.09;4979989;28;20034;-70
2022/01/11 05:14:59;;;;;;;12.85;12.20;;;;;;;-2.81;100.00;101710.88;4984305;28;20038;-67
2022/01/11 05:17:25;;;;;;;14.38;13.52;;;;;;;-2.94;100.00;101709.66;4989838;28;20488;-69
2022/01/11 05:19:50;;;;;;;15.32;14.40;;;;;;;-2.47;100.00;101716.50;4985926;28;20380;-69
2022/01/11 05:22:15;;;;;;;13.93;13.15;;;;;;;-2.25;100.00;101712.13;4983563;28;20023;-73
2022/01/11 05:24:41;;;;;;;14.65;13.75;;;;;;;-2.59;100.00;101712.63;4992397;28;20063;-72
2022/01/11 05:27:07;;;;;;;13.77;13.05;;;;;;;-2.27;100.00;101714.78;4986525;28;20022;-73
2022/01/11 05:29:33;;;;;;;14.23;13.32;;;;;;;-2.69;100.00;101711.31;4990279;28;20026;-74
2022/01/11 05:31:59;;;;;;;14.30;13.45;;;;;;;-2.57;100.00;101716.88;4988843;28;20547;-64
2022/01/11 05:34:25;;;;;;;16.27;15.18;;;;;;;-2.53;100.00;101723.63;4980137;28;20034;-69
2022/01/11 05:36:52;;;;;;;14.70;13.80;;;;;;;-2.66;100.00;101726.78;4981002;28;20501;-66
2022/01/11 05:39:18;;;;;;;13.43;12.73;;;;;;;-2.62;100.00;101728.34;4985255;28;20125;-67
2022/01/11 05:41:43;;;;;;;12.90;12.20;;;;;;;-2.70;100.00;101735.59;4988328;28;20073;-69
2022/01/11 05:44:09;;;;;;;14.13;13.32;;;;;;;-2.31;100.00;101730.56;4992714;28;20042;-71
2022/01/11 05:46:34;;;;;;;14.30;13.40;;;;;;;-2.53;100.00;101738.38;4981488;28;20507;-71
2022/01/11 05:49:00;;;;;;;14.00;13.18;;;;;;;-2.41;100.00;101748.28;4988785;28;20030;-71
2022/01/11 05:51:27;;;;;;;13.50;12.70;;;;;;;-2.31;100.00;101739.19;4986426;28;20520;-68
2022/01/11 05:53:53;;;;;;;13.85;13.05;;;;;;;-2.47;100.00;101751.13;4986593;28;21561;-69
2022/01/11 05:56:19;;;;;;;13.20;12.50;;;;;;;-2.66;100.00;101753.59;4978529;28;20050;-65
2022/01/11 05:58:46;;;;;;;13.02;12.35;;;;;;;-2.75;100.00;101748.75;4983655;28;20073;-62
2022/01/11 06:01:12;;;;;;;14.50;13.60;;;;;;;-2.71;100.00;101752.09;4979890;28;20030;-66
2022/01/11 06:03:38;;;;;;;14.30;13.50;;;;;;;-2.78;100.00;101751.50;4984841;28;20392;-68
2022/01/11 06:06:03;;;;;;;13.30;12.60;;;;;;;-2.82;100.00;101752.50;4979004;28;20026;-64
2022/01/11 06:08:28;;;;;;;14.70;13.80;;;;;;;-2.76;100.00;101762.66;4986170;28;20053;-67
2022/01/11 06:10:56;;;;;;;13.85;13.05;;;;;;;-2.76;100.00;101773.03;4987447;28;20038;-65
2022/01/11 06:13:21;;;;;;;13.95;13.15;;;;;;;-2.83;100.00;101779.38;4981459;28;20444;-65
2022/01/11 06:15:47;;;;;;;14.02;13.23;;;;;;;-2.80;100.00;101774.03;4985589;28;20065;-66
2022/01/11 06:18:12;;;;;;;13.65;12.90;;;;;;;-2.77;100.00;101776.53;4984761;28;20405;-66
2022/01/11 06:20:38;;;;;;;13.82;13.02;;;;;;;-2.87;100.00;101782.97;4982945;28;20069;-65
2022/01/11 06:23:03;;;;;;;13.70;13.00;;;;;;;-2.93;100.00;101772.84;4985938;28;20100;-63
2022/01/11 06:25:29;;;;;;;13.30;12.60;;;;;;;-3.02;100.00;101781.78;4983497;28;20030;-63
2022/01/11 06:27:54;;;;;;;14.52;13.63;;;;;;;-3.01;100.00;101788.72;4983735;28;20033;-62
2022/01/11 06:30:20;;;;;;;16.38;15.35;;;;;;;-3.01;100.00;101787.84;4983818;28;20030;-67
2022/01/11 06:32:46;;;;;;;13.32;12.63;;;;;;;-3.16;100.00;101794.44;4983557;28;20037;-64
2022/01/11 06:35:14;;;;;;;13.20;12.50;;;;;;;-2.88;100.00;101794.28;4975043;28;20401;-63
2022/01/11 06:37:40;;;;;;;14.18;13.38;;;;;;;-2.93;100.00;101806.59;4976102;28;20027;-64
2022/01/11 06:40:07;;;;;;;13.45;12.75;;;;;;;-2.85;100.00;101805.41;4982627;28;20395;-64
2022/01/11 06:42:33;;;;;;;13.50;12.80;;;;;;;-2.78;100.00;101813.81;4983099;28;20035;-63
2022/01/11 06:44:58;;;;;;;13.05;12.35;;;;;;;-2.81;100.00;101813.91;4979826;28;20031;-65
2022/01/11 06:47:24;;;;;;;13.80;13.00;;;;;;;-3.00;100.00;101825.91;4981166;28;20026;-67
2022/01/11 06:49:49;;;;;;;13.05;12.35;;;;;;;-2.92;100.00;101839.44;4985600;28;20121;-64
2022/01/11 06:52:15;;;;;;;13.52;12.82;;;;;;;-2.95;100.00;101827.41;4978614;28;20030;-64
2022/01/11 06:54:42;;;;;;;14.27;13.48;;;;;;;-2.97;100.00;101829.22;4983543;28;20037;-63
2022/01/11 06:57:10;;;;;;;14.27;13.48;;;;;;;-3.14;100.00;101840.22;4972950;28;20053;-64
2022/01/11 06:59:37;;;;;;;14.35;13.55;;;;;;;-3.07;100.00;101838.25;4973164;28;20062;-66
2022/01/11 07:02:06;;;;;;;13.82;13.05;;;;;;;-2.94;100.00;101841.22;4982352;28;20046;-66
2022/01/11 07:04:33;;;;;;;13.23;12.52;;;;;;;-3.06;100.00;101840.78;4980916;28;20072;-68
2022/01/11 07:06:58;;;;;;;13.80;13.02;;;;;;;-2.98;100.00;101850.88;4984549;28;20034;-64
2022/01/11 07:09:24;;;;;;;13.73;13.00;;;;;;;-3.03;100.00;101852.78;4977057;28;20084;-67
2022/01/11 07:11:50;;;;;;;14.80;14.00;;;;;;;-2.87;100.00;101847.88;4974242;28;20713;-64
2022/01/11 07:14:16;;;;;;;13.73;12.93;;;;;;;-2.95;100.00;101845.56;4985729;28;20392;-66
2022/01/11 07:16:43;;;;;;;13.38;12.68;;;;;;;-2.92;100.00;101850.66;4982461;28;20050;-64
2022/01/11 07:19:09;;;;;;;13.07;12.45;;;;;;;-2.92;100.00;101855.88;4976903;28;20468;-65
2022/01/11 07:21:34;;;;;;;13.40;12.70;;;;;;;-3.08;100.00;101868.56;4986308;28;20053;-67
2022/01/11 07:24:01;;;;;;;14.27;13.48;;;;;;;-3.00;100.00;101864.84;4984599;28;20370;-65
2022/01/11 07:26:27;;;;;;;14.63;13.82;;;;;;;-2.95;100.00;101865.50;4976254;28;20029;-65
2022/01/11 07:28:52;;;;;;;16.38;15.48;;;;;;;-2.87;100.00;101874.69;4969517;28;20039;-66
2022/01/11 07:31:18;;;;;;;14.82;13.93;;;;;;;-2.89;100.00;101886.91;4983501;28;20064;-66
2022/01/11 07:33:43;;;;;;;13.95;13.15;;;;;;;-2.77;100.00;101875.22;4980528;28;20473;-68
2022/01/11 07:36:09;;;;;;;17.42;16.42;;;;;;;-2.48;100.00;101887.13;4977200;28;20030;-68
2022/01/11 07:38:34;;;;;;;14.73;13.95;;;;;;;-2.94;100.00;101883.59;4977842;28;20023;-63
2022/01/11 07:41:00;;;;;;;14.70;13.90;;;;;;;-3.00;100.00;101888.19;4988036;28;20392;-63
2022/01/11 07:43:25;;;;;;;15.48;14.68;;;;;;;-3.12;100.00;101892.06;4981668;28;20058;-68
2022/01/11 07:45:51;;;;;;;13.45;12.75;;;;;;;-3.25;100.00;101888.19;4979532;28;20027;-68
2022/01/11 07:48:16;;;;;;;13.48;12.77;;;;;;;-3.10;100.00;101905.81;4985025;28;20069;-66
2022/01/11 07:50:42;;;;;;;14.65;13.85;;;;;;;-3.17;100.00;101896.56;4989254;28;20038;-65
2022/01/11 07:53:08;;;;;;;14.88;14.07;;;;;;;-3.17;100.00;101888.78;4983901;28;20105;-66
2022/01/11 07:55:33;;;;;;;13.70;13.00;;;;;;;-3.15;100.00;101903.41;4978679;28;20108;-67
2022/01/11 07:57:59;;;;;;;14.50;13.70;;;;;;;-3.05;100.00;101898.72;4978500;28;20049;-64
2022/01/11 08:00:24;;;;;;;13.63;12.93;;;;;;;-3.10;100.00;101901.47;4980553;28;20035;-68
2022/01/11 08:02:49;;;;;;;13.93;13.23;;;;;;;-3.12;100.00;101905.88;4982038;28;20175;-67
2022/01/11 08:05:16;;;;;;;14.75;13.85;;;;;;;-3.09;100.00;101905.75;4990337;28;20025;-67
2022/01/11 08:07:42;;;;;;;14.80;13.95;;;;;;;-3.09;100.00;101910.09;4982125;28;20041;-68
2022/01/11 08:10:11;;;;;;;13.68;12.98;;;;;;;-3.13;100.00;101908.53;4977842;28;20387;-67
2022/01/11 08:12:37;;;;;;;14.52;13.73;;;;;;;-3.31;100.00;101903.97;4988184;28;20031;-64
2022/01/11 08:15:04;;;;;;;13.90;13.15;;;;;;;-3.11;100.00;101915.38;4986402;28;20045;-69
2022/01/11 08:17:29;;;;;;;13.77;13.07;;;;;;;-3.24;100.00;101911.50;4984378;28;20026;-69
2022/01/11 08:19:55;;;;;;;14.40;13.60;;;;;;;-3.19;100.00;101917.38;4986134;28;20056;-71
2022/01/11 08:22:20;;;;;;;14.35;13.55;;;;;;;-3.10;100.00;101917.06;4987413;28;20026;-65
2022/01/11 08:24:46;;;;;;;14.95;14.15;;;;;;;-3.11;100.00;101923.16;4983687;28;20029;-68
2022/01/11 08:27:12;;;;;;;13.57;12.88;;;;;;;-3.10;100.00;101924.84;4985188;28;20023;-66
2022/01/11 08:29:39;;;;;;;14.23;13.43;;;;;;;-3.11;100.00;101919.72;4987792;28;20034;-65
2022/01/11 08:32:06;;;;;;;14.05;13.25;;;;;;;-3.08;100.00;101925.66;4986027;28;20085;-70
2022/01/11 08:34:31;;;;;;;13.75;13.05;;;;;;;-2.92;100.00;101931.16;4986164;28;20069;-65
2022/01/11 08:36:58;;;;;;;14.40;13.60;;;;;;;-2.86;100.00;101932.69;4983010;28;20031;-67
2022/01/11 08:39:25;;;;;;;16.77;15.88;;;;;;;-3.08;100.00;101933.44;4986062;28;20065;-67
2022/01/11 08:41:51;;;;;;;16.05;15.15;;;;;;;-3.01;100.00;101933.22;4977748;28;20510;-67
2022/01/11 08:44:19;;;;;;;14.55;13.75;;;;;;;-2.93;100.00;101936.41;4988722;28;20053;-65
2022/01/11 08:46:45;;;;;;;16.02;15.13;;;;;;;-3.12;100.00;101929.25;4980357;28;20038;-68
2022/01/11 08:49:12;;;;;;;14.48;13.65;;;;;;;-2.93;100.00;101936.41;4982652;28;20158;-69
2022/01/11 08:51:39;;;;;;;14.30;13.45;;;;;;;-2.98;100.00;101933.13;4979227;28;20052;-70
2022/01/11 08:54:05;;;;;;;13.77;12.98;;;;;;;-2.97;100.00;101930.47;4981801;28;20058;-65
2022/01/11 08:56:31;;;;;;;13.82;13.13;;;;;;;-3.02;100.00;101927.16;4983627;28;20433;-68
2022/01/11 08:58:57;;;;;;;13.50;12.80;;;;;;;-2.96;100.00;101931.31;4988840;28;20033;-63
2022/01/11 09:01:25;;;;;;;14.55;13.65;;;;;;;-3.16;100.00;101921.59;4986843;28;20025;-68
2022/01/11 09:03:50;;;;;;;13.88;13.10;;;;;;;-2.91;100.00;101930.25;4983008;28;20104;-68
2022/01/11 09:06:16;;;;;;;13.70;13.00;;;;;;;-2.89;100.00;101922.41;4980837;28;20046;-67
2022/01/11 09:08:41;;;;;;;13.68;12.95;;;;;;;-2.81;100.00;101916.03;4985001;28;20027;-66
2022/01/11 09:11:07;;;;;;;14.27;13.45;;;;;;;-2.85;100.00;101924.84;4980587;28;20027;-65
2022/01/11 09:13:34;;;;;;;12.90;12.27;;;;;;;-2.85;100.00;101908.41;4989369;28;20476;-68
2022/01/11 09:16:00;;;;;;;14.02;13.20;;;;;;;-2.96;100.00;101911.38;4985500;28;20038;-67
2022/01/11 09:18:26;;;;;;;14.07;13.27;;;;;;;-2.94;100.00;101903.53;4977453;28;20022;-64
2022/01/11 09:20:51;;;;;;;14.15;13.43;;;;;;;-3.11;100.00;101906.72;4985041;28;20034;-65
2022/01/11 09:23:17;;;;;;;13.73;12.95;;;;;;;-2.99;100.00;101906.31;4983014;28;20587;-66
2022/01/11 09:25:45;;;;;;;13.98;13.25;;;;;;;-2.98;100.00;101896.78;4980966;28;20027;-66
2022/01/11 09:28:11;;;;;;;14.10;13.30;;;;;;;-2.87;100.00;101905.00;4982835;28;20506;-63
2022/01/11 09:30:36;;;;;;;14.13;13.43;;;;;;;-3.06;100.00;101908.28;4981294;28;20027;-64
2022/01/11 09:33:02;;;;;;;15.50;14.68;;;;;;;-2.96;100.00;101895.81;4984618;28;20456;-65
2022/01/11 09:35:27;;;;;;;13.88;13.18;;;;;;;-2.92;100.00;101897.41;4978749;28;20038;-67
2022/01/11 09:37:53;;;;;;;14.35;13.55;;;;;;;-2.92;100.00;101897.41;4983628;28;20388;-66
2022/01/11 09:40:18;;;;;;;13.60;12.90;;;;;;;-2.87;100.00;101892.88;4985256;28;20026;-66
2022/01/11 09:42:44;;;;;;;14.73;13.93;;;;;;;-2.76;100.00;101894.25;4983018;28;20485;-69
2022/01/11 09:45:12;;;;;;;15.43;14.45;;;;;;;-2.79;100.00;101896.06;4983201;28;20046;-66
2022/01/11 09:47:39;;;;;;;13.95;13.15;;;;;;;-2.73;100.00;101900.16;4985810;28;20067;-68
2022/01/11 09:50:07;;;;;;;13.98;13.27;;;;;;;-2.78;100.00;101883.94;4979663;28;20636;-66
2022/01/11 09:52:35;;;;;;;14.20;13.40;;;;;;;-2.80;99.98;101885.72;4986013;28;20033;-64
2022/01/11 09:55:00;;;;;;;14.93;14.02;;;;;;;-2.84;100.00;101895.38;4989932;28;20030;-64
2022/01/11 09:57:26;;;;;;;13.65;12.95;;;;;;;-2.65;100.00;101885.16;4982259;28;20051;-66
2022/01/11 09:59:52;;;;;;;14.73;13.93;;;;;;;-2.47;98.92;101887.97;4975374;28;20034;-64
2022/01/11 10:02:18;;;;;;;13.40;12.70;;;;;;;-2.32;97.48;101877.84;4981291;28;20050;-65
2022/01/11 10:04:44;;;;;;;13.10;12.40;;;;;;;-2.41;96.76;101874.75;4983487;28;20026;-63
2022/01/11 10:07:11;;;;;;;13.45;12.75;;;;;;;-2.29;97.42;101880.31;4985806;28;20503;-62
2022/01/11 10:09:48;;;;;;;13.80;13.00;;;;;;;-2.38;96.05;101885.03;4983290;28;20037;-67
2022/01/11 10:12:14;;;;;;;12.82;12.13;;;;;;;-2.49;96.44;101879.41;4977708;28;20034;-69
2022/01/11 10:15:00;;;;;;;14.60;13.80;;;;;;;-2.38;96.67;101880.69;4976222;28;20061;-69
2022/01/11 10:17:29;;;;;;;13.77;12.98;;;;;;;-2.35;95.51;101875.38;4979342;28;20042;-66
2022/01/11 10:20:12;;;;;;;13.63;12.90;;;;;;;-2.32;96.53;101870.06;4975443;28;20029;-67
2022/01/11 10:22:57;;;;;;;13.70;13.00;;;;;;;-2.24;97.22;101880.16;4975658;28;20114;-64
2022/01/11 10:25:23;;;;;;;13.45;12.75;;;;;;;-2.26;94.82;101885.41;4982215;28;20026;-65
2022/01/11 10:27:58;;;;;;;14.60;13.75;;;;;;;-2.39;94.81;101885.94;4985555;28;20035;-64
2022/01/11 10:30:26;;;;;;;13.50;12.80;;;;;;;-2.56;93.77;101887.44;4981698;28;20035;-64
2022/01/11 10:32:53;;;;;;;13.85;13.05;;;;;;;-2.54;94.24;101895.16;4980900;28;20023;-64
2022/01/11 10:35:23;;;;;;;13.73;13.02;;;;;;;-2.38;93.17;101887.63;4980845;28;20022;-65
2022/01/11 10:37:54;;;;;;;13.65;12.95;;;;;;;-2.54;92.10;101890.81;4977163;28;20109;-62
2022/01/11 10:40:22;;;;;;;13.30;12.60;;;;;;;-2.42;92.75;101886.03;4976844;28;20034;-63
2022/01/11 10:42:58;;;;;;;13.07;12.45;;;;;;;-2.67;93.00;101884.38;4985472;28;20716;-64
2022/01/11 10:45:35;;;;;;;14.75;13.95;;;;;;;-2.62;92.07;101881.59;4982012;28;20026;-65
2022/01/11 10:48:22;;;;;;;13.35;12.65;;;;;;;-2.78;91.50;101873.53;4983124;28;20137;-66
2022/01/11 10:50:54;;;;;;;14.55;13.75;;;;;;;-2.78;91.40;101889.97;4985894;28;20030;-67
2022/01/11 10:53:23;;;;;;;15.52;14.57;;;;;;;-2.66;92.19;101883.47;4977936;28;20023;-65
2022/01/11 10:56:00;;;;;;;13.80;13.07;;;;;;;-2.54;91.43;101885.59;4978265;28;20101;-64
2022/01/11 10:58:36;;;;;;;14.13;13.32;;;;;;;-2.56;91.45;101881.38;4984699;28;20026;-63
2022/01/11 11:01:04;;;;;;;13.68;12.98;;;;;;;-2.60;90.95;101883.22;4984068;28;20030;-65
2022/01/11 11:03:32;;;;;;;14.93;14.13;;;;;;;-2.45;90.50;101893.97;4979257;28;20022;-63
2022/01/11 11:06:10;;;;;;;13.60;12.90;;;;;;;-2.44;90.18;101893.91;4979597;28;20061;-65